Time;durP1;ratioP1;P1;durP2;ratioP2;P2;SDS_P1;SDS_P2;PMS_P1;PMS_P2;Temp;Humidity;BMP_temperature;BMP_pressure;BME280_temperature;BME280_humidity;BME280_pressure;Samples;Min_cycle;Max_cycle;Signal;HPM_P1;HPM_P2
2022/01/03 00:01:07;;;;;;;3.07;2.17;;;12.80;99.90;;;;;;5093285;28;20467;-62
2022/01/03 00:03:34;;;;;;;3.60;2.23;;;12.80;99.90;;;;;;5092908;28;20458;-62
2022/01/03 00:06:02;;;;;;;4.70;2.10;;;12.80;99.90;;;;;;5093237;28;20466;-64
2022/01/03 00:08:30;;;;;;;6.40;1.93;;;12.90;99.90;;;;;;5093213;28;20448;-62
2022/01/03 00:10:58;;;;;;;4.90;2.43;;;13.00;99.90;;;;;;5093063;28;20471;-62
2022/01/03 00:13:26;;;;;;;5.50;2.20;;;13.00;99.90;;;;;;5092590;28;20554;-62
2022/01/03 00:15:55;;;;;;;4.70;2.07;;;13.00;99.90;;;;;;5092871;28;20886;-62
2022/01/03 00:18:24;;;;;;;5.43;2.87;;;13.00;99.90;;;;;;5093119;28;20479;-64
2022/01/03 00:20:57;;;;;;;2.63;2.17;;;13.10;99.90;;;;;;5093033;28;20463;-62
2022/01/03 00:23:27;;;;;;;5.10;1.90;;;13.10;99.90;;;;;;5092872;28;20431;-62
2022/01/03 00:25:59;;;;;;;2.93;1.90;;;13.10;99.90;;;;;;5092966;28;20443;-62
2022/01/03 00:28:33;;;;;;;5.27;2.17;;;13.10;99.90;;;;;;5093258;28;20427;-62
2022/01/03 00:31:03;;;;;;;6.37;2.57;;;13.00;99.90;;;;;;5093005;28;20470;-62
2022/01/03 00:33:31;;;;;;;3.87;2.13;;;13.00;99.90;;;;;;5092970;28;20443;-62
2022/01/03 00:36:00;;;;;;;3.73;1.80;;;13.00;99.90;;;;;;5092762;28;20957;-62
2022/01/03 00:38:29;;;;;;;4.43;2.20;;;13.00;99.90;;;;;;5094846;28;20479;-62
2022/01/03 00:40:59;;;;;;;2.27;1.83;;;13.00;99.90;;;;;;5096338;28;20463;-61
2022/01/03 00:43:26;;;;;;;4.77;2.50;;;13.00;99.90;;;;;;5096851;28;20451;-62
2022/01/03 00:45:54;;;;;;;9.70;2.27;;;13.10;99.90;;;;;;5096784;28;20451;-62
2022/01/03 00:48:23;;;;;;;5.00;2.40;;;13.00;99.90;;;;;;5096611;28;20444;-62
2022/01/03 00:50:51;;;;;;;4.20;2.27;;;13.10;99.90;;;;;;5096182;28;20558;-62
2022/01/03 00:53:19;;;;;;;4.47;2.43;;;13.00;99.90;;;;;;5096110;28;20929;-62
2022/01/03 00:56:02;;;;;;;4.23;2.33;;;13.00;99.90;;;;;;5096611;28;20779;-62
2022/01/03 00:58:36;;;;;;;5.00;2.10;;;13.00;99.90;;;;;;5096436;28;20471;-62
2022/01/03 01:01:05;;;;;;;3.73;2.10;;;13.00;99.90;;;;;;5096290;28;20471;-62
2022/01/03 01:03:37;;;;;;;3.60;1.83;;;13.00;99.90;;;;;;5096103;28;20938;-61
2022/01/03 01:06:06;;;;;;;4.83;2.13;;;13.00;99.90;;;;;;5096229;28;20542;-61
2022/01/03 01:08:35;;;;;;;4.30;1.90;;;13.00;99.90;;;;;;5096102;28;20436;-62
2022/01/03 01:11:05;;;;;;;8.30;2.03;;;12.90;99.90;;;;;;5096261;28;20471;-63
2022/01/03 01:13:32;;;;;;;3.27;1.73;;;12.90;99.90;;;;;;5095799;28;20478;-63
2022/01/03 01:15:59;;;;;;;3.13;1.63;;;12.90;99.90;;;;;;5095662;28;20974;-63
2022/01/03 01:18:31;;;;;;;4.63;3.03;;;12.90;99.90;;;;;;5095854;28;20958;-63
2022/01/03 01:20:59;;;;;;;3.70;3.10;;;12.80;99.90;;;;;;5095678;28;20566;-63
2022/01/03 01:23:27;;;;;;;5.97;2.50;;;12.90;99.90;;;;;;5095844;28;20447;-63
2022/01/03 01:28:39;;;;;;;3.03;2.20;;;12.90;99.90;;;;;;5095629;28;20774;-63
2022/01/03 01:31:06;;;;;;;3.67;2.10;;;12.90;99.90;;;;;;5095538;28;20831;-63
2022/01/03 01:33:38;;;;;;;2.63;1.80;;;12.90;99.90;;;;;;5095688;28;20498;-63
2022/01/03 01:36:08;;;;;;;2.37;2.17;;;12.80;99.90;;;;;;5095588;28;20432;-63
2022/01/03 01:38:36;;;;;;;4.20;2.37;;;12.80;99.90;;;;;;5095317;28;21012;-63
2022/01/03 01:41:06;;;;;;;3.37;1.97;;;12.80;99.90;;;;;;5095232;28;20558;-63
2022/01/03 01:43:36;;;;;;;3.63;2.10;;;12.80;99.90;;;;;;5095440;28;20450;-62
2022/01/03 01:46:08;;;;;;;6.07;2.13;;;12.80;99.90;;;;;;5095103;28;20435;-63
2022/01/03 01:48:36;;;;;;;4.33;2.47;;;12.70;99.90;;;;;;5095175;28;20439;-63
2022/01/03 01:51:05;;;;;;;3.70;1.80;;;12.70;99.90;;;;;;5094310;28;20558;-63
2022/01/03 01:53:39;;;;;;;4.80;2.00;;;12.70;99.90;;;;;;5095287;28;20449;-63
2022/01/03 01:56:15;;;;;;;3.83;2.27;;;12.70;99.90;;;;;;5094928;28;20438;-63
2022/01/03 01:58:55;;;;;;;3.20;2.00;;;12.70;99.90;;;;;;5094985;28;20776;-63
2022/01/03 02:01:26;;;;;;;5.30;2.07;;;12.60;99.90;;;;;;5095234;28;20794;-63
2022/01/03 02:04:00;;;;;;;4.97;2.40;;;12.70;99.90;;;;;;5094782;28;20448;-61
2022/01/03 02:06:34;;;;;;;4.77;3.47;;;12.70;99.90;;;;;;5095025;28;20458;-63
2022/01/03 02:09:06;;;;;;;7.40;3.07;;;12.70;99.90;;;;;;5095026;28;20436;-63
2022/01/03 02:11:49;;;;;;;5.60;2.40;;;12.70;99.90;;;;;;5095042;28;20504;-63
2022/01/03 02:14:16;;;;;;;2.53;2.33;;;12.70;99.90;;;;;;5094680;28;20543;-63
2022/01/03 02:16:44;;;;;;;4.67;2.13;;;12.60;99.90;;;;;;5094834;28;20808;-62
2022/01/03 02:19:11;;;;;;;4.70;2.00;;;12.60;99.90;;;;;;5094658;28;20479;-63
2022/01/03 02:21:40;;;;;;;2.80;2.13;;;12.60;99.90;;;;;;5094535;28;20966;-62
2022/01/03 02:24:08;;;;;;;2.50;2.03;;;12.60;99.90;;;;;;5094869;28;20550;-63
2022/01/03 02:26:35;;;;;;;3.63;2.03;;;12.60;99.90;;;;;;5094669;28;20439;-63
2022/01/03 02:29:03;;;;;;;6.90;2.00;;;12.60;99.90;;;;;;5094633;28;20436;-63
2022/01/03 02:31:31;;;;;;;4.00;1.97;;;12.50;99.90;;;;;;5094628;28;20659;-63
2022/01/03 02:34:00;;;;;;;7.73;2.33;;;12.50;99.90;;;;;;5094197;28;20882;-63
2022/01/03 02:36:28;;;;;;;3.10;2.13;;;12.50;99.90;;;;;;5094480;28;20483;-63
2022/01/03 02:38:57;;;;;;;3.80;2.17;;;12.50;99.90;;;;;;5094482;28;20486;-63
2022/01/03 02:41:24;;;;;;;3.53;2.13;;;12.50;99.90;;;;;;5094312;28;20520;-62
2022/01/03 02:43:51;;;;;;;4.43;2.30;;;12.50;99.90;;;;;;5094275;28;20443;-63
2022/01/03 02:46:19;;;;;;;3.07;1.57;;;12.40;99.90;;;;;;5094415;28;20446;-63
2022/01/03 02:48:46;;;;;;;3.43;2.07;;;12.30;99.90;;;;;;5093960;28;20450;-63
2022/01/03 02:51:14;;;;;;;2.97;2.13;;;12.40;99.90;;;;;;5093848;28;20797;-63
2022/01/03 02:53:41;;;;;;;5.50;2.30;;;12.40;99.90;;;;;;5094286;28;20455;-63
2022/01/03 02:56:10;;;;;;;5.20;2.30;;;12.40;99.90;;;;;;5093790;28;20447;-63
2022/01/03 02:58:38;;;;;;;3.80;2.40;;;12.40;99.90;;;;;;5093849;28;20815;-63
2022/01/03 03:01:06;;;;;;;4.73;2.00;;;12.40;99.90;;;;;;5093992;28;20460;-63
2022/01/03 03:03:33;;;;;;;3.53;1.73;;;12.30;99.90;;;;;;5093710;28;20956;-63
2022/01/03 03:06:00;;;;;;;4.60;1.83;;;12.30;99.90;;;;;;5093505;28;20466;-63
2022/01/03 03:08:27;;;;;;;4.23;1.93;;;12.30;99.90;;;;;;5093673;28;21024;-63
2022/01/03 03:10:54;;;;;;;4.27;2.10;;;12.30;99.90;;;;;;5093925;28;20463;-63
2022/01/03 03:13:23;;;;;;;2.73;1.87;;;12.30;99.90;;;;;;5093258;28;20499;-63
2022/01/03 03:15:50;;;;;;;5.47;2.00;;;12.30;99.90;;;;;;5093758;28;20440;-62
2022/01/03 03:18:18;;;;;;;2.60;1.97;;;12.30;99.90;;;;;;5093843;28;20479;-63
2022/01/03 03:20:45;;;;;;;9.77;2.73;;;12.30;99.90;;;;;;5093259;28;20992;-63
2022/01/03 03:23:13;;;;;;;5.60;2.27;;;12.30;99.90;;;;;;5093403;28;20542;-63
2022/01/03 03:25:40;;;;;;;3.30;2.23;;;12.30;99.90;;;;;;5093475;28;20439;-63
2022/01/03 03:28:09;;;;;;;2.47;1.90;;;12.20;99.90;;;;;;5093325;28;20440;-63
2022/01/03 03:30:39;;;;;;;3.27;2.10;;;12.30;99.90;;;;;;5093165;28;20472;-63
2022/01/03 03:33:09;;;;;;;5.27;2.00;;;12.20;99.90;;;;;;5093941;28;20440;-63
2022/01/03 03:35:37;;;;;;;6.13;3.00;;;12.10;99.90;;;;;;5094033;28;20522;-63
2022/01/03 03:38:05;;;;;;;1.73;1.63;;;12.20;99.90;;;;;;5093197;28;20427;-63
2022/01/03 03:40:32;;;;;;;3.70;2.20;;;12.20;99.90;;;;;;5092994;28;21044;-63
2022/01/03 03:42:59;;;;;;;3.90;2.20;;;12.20;99.90;;;;;;5093539;28;20428;-63
2022/01/03 03:45:26;;;;;;;3.03;1.80;;;12.20;99.90;;;;;;5093510;28;20453;-63
2022/01/03 03:47:57;;;;;;;3.90;2.00;;;12.20;99.90;;;;;;5093341;28;20448;-63
2022/01/03 03:50:25;;;;;;;5.57;2.73;;;12.20;99.90;;;;;;5093420;28;20475;-63
2022/01/03 03:52:53;;;;;;;2.63;1.80;;;12.10;99.90;;;;;;5092969;28;20926;-63
2022/01/03 03:55:20;;;;;;;2.50;1.60;;;12.10;99.90;;;;;;5092955;28;20458;-63
2022/01/03 03:57:47;;;;;;;2.63;2.00;;;12.10;99.90;;;;;;5093388;28;20538;-63
2022/01/03 04:00:17;;;;;;;4.73;1.80;;;12.10;99.90;;;;;;5092788;28;20487;-63
2022/01/03 04:02:44;;;;;;;6.90;2.13;;;12.10;99.90;;;;;;5093146;28;20443;-63
2022/01/03 04:05:13;;;;;;;4.27;1.80;;;12.10;99.90;;;;;;5093319;28;20479;-63
2022/01/03 04:07:40;;;;;;;13.23;2.20;;;12.20;99.90;;;;;;5092732;28;20455;-62
2022/01/03 04:10:10;;;;;;;7.80;2.10;;;12.10;99.90;;;;;;5093093;28;20443;-63
2022/01/03 04:12:37;;;;;;;3.73;1.87;;;12.10;99.90;;;;;;5093469;28;20785;-63
2022/01/03 04:15:05;;;;;;;2.53;1.70;;;12.10;99.90;;;;;;5096941;28;20479;-62
2022/01/03 04:17:32;;;;;;;3.27;2.00;;;12.20;99.90;;;;;;5097087;28;20517;-62
2022/01/03 04:20:00;;;;;;;4.23;2.00;;;12.10;99.90;;;;;;5096701;28;20473;-63
2022/01/03 04:22:28;;;;;;;6.60;2.43;;;12.10;99.90;;;;;;5096881;28;20451;-63
2022/01/03 04:24:55;;;;;;;3.53;1.90;;;12.10;99.90;;;;;;5096728;28;20455;-63
2022/01/03 04:27:22;;;;;;;3.47;2.40;;;12.10;99.90;;;;;;5096962;28;20807;-63
2022/01/03 04:29:49;;;;;;;5.17;2.53;;;12.10;99.90;;;;;;5096987;28;20453;-63
2022/01/03 04:32:17;;;;;;;6.57;1.97;;;12.10;99.90;;;;;;5096604;28;20443;-63
2022/01/03 04:34:44;;;;;;;6.10;1.97;;;12.10;99.90;;;;;;5096502;28;21020;-63
2022/01/03 04:37:13;;;;;;;2.80;2.27;;;12.10;99.90;;;;;;5097060;28;20451;-63
2022/01/03 04:39:42;;;;;;;3.50;2.13;;;12.20;99.90;;;;;;5096636;28;20528;-63
2022/01/03 04:42:09;;;;;;;6.97;2.10;;;12.20;99.90;;;;;;5096595;28;20463;-63
2022/01/03 04:44:36;;;;;;;5.63;1.70;;;12.20;99.90;;;;;;5096822;28;20934;-63
2022/01/03 04:47:04;;;;;;;3.00;1.97;;;12.20;99.90;;;;;;5096239;28;20454;-63
2022/01/03 04:49:31;;;;;;;4.63;2.50;;;12.20;99.90;;;;;;5096605;28;20825;-63
2022/01/03 04:51:58;;;;;;;6.70;2.60;;;12.20;99.90;;;;;;5096633;28;20554;-63
2022/01/03 04:54:25;;;;;;;6.30;3.03;;;12.20;99.90;;;;;;5096129;28;20951;-63
2022/01/03 04:56:58;;;;;;;5.87;2.47;;;12.10;99.90;;;;;;5096118;28;20941;-63
2022/01/03 04:59:26;;;;;;;2.73;2.07;;;12.00;99.90;;;;;;5096437;28;20493;-63
2022/01/03 05:01:53;;;;;;;4.20;2.20;;;11.90;99.90;;;;;;5096402;28;20558;-63
2022/01/03 05:04:20;;;;;;;5.43;2.70;;;11.90;99.90;;;;;;5096280;28;20451;-63
2022/01/03 05:06:47;;;;;;;7.63;1.97;;;11.60;99.90;;;;;;5096055;28;20447;-63
2022/01/03 05:09:14;;;;;;;9.70;2.33;;;11.60;99.90;;;;;;5096167;28;20443;-63
2022/01/03 05:11:41;;;;;;;2.30;2.10;;;11.60;99.90;;;;;;5096114;28;20463;-63
2022/01/03 05:14:10;;;;;;;7.23;2.20;;;11.20;99.90;;;;;;5095799;28;20490;-64
2022/01/03 05:16:37;;;;;;;8.10;3.17;;;11.00;99.90;;;;;;5096176;28;20454;-63
2022/01/03 05:19:04;;;;;;;8.77;2.60;;;10.70;99.90;;;;;;5095918;28;20837;-63
2022/01/03 05:21:32;;;;;;;6.70;2.20;;;10.80;99.90;;;;;;5095852;28;20503;-63
2022/01/03 05:23:59;;;;;;;2.53;2.17;;;10.70;99.90;;;;;;5095073;28;20443;-63
2022/01/03 05:26:26;;;;;;;7.00;2.00;;;10.60;99.90;;;;;;5095501;28;20474;-63
2022/01/03 05:28:53;;;;;;;13.60;2.47;;;10.60;99.90;;;;;;5095794;28;20443;-63
2022/01/03 05:31:22;;;;;;;4.00;2.10;;;10.60;99.90;;;;;;5095592;28;20958;-63
2022/01/03 05:33:49;;;;;;;3.30;2.40;;;;;;;;;;5095357;28;20456;-63
2022/01/03 05:36:16;;;;;;;5.67;1.77;;;10.90;99.90;;;;;;5095551;28;20451;-63
2022/01/03 05:38:44;;;;;;;6.80;2.27;;;11.00;99.90;;;;;;5095666;28;20811;-63
2022/01/03 05:41:11;;;;;;;15.17;2.63;;;11.00;99.90;;;;;;5095861;28;20463;-63
2022/01/03 05:43:38;;;;;;;3.67;2.00;;;11.00;99.90;;;;;;5095282;28;20451;-63
2022/01/03 05:46:05;;;;;;;7.57;2.83;;;11.00;99.90;;;;;;5095572;28;20431;-63
2022/01/03 05:48:34;;;;;;;5.67;2.73;;;11.00;99.90;;;;;;5095641;28;20489;-63
2022/01/03 05:51:01;;;;;;;4.37;2.50;;;10.90;99.90;;;;;;5094897;28;20685;-63
2022/01/03 05:53:30;;;;;;;5.90;2.07;;;10.80;99.90;;;;;;5095014;28;20445;-63
2022/01/03 05:55:57;;;;;;;3.73;3.00;;;10.80;99.90;;;;;;5095436;28;20451;-63
2022/01/03 05:58:24;;;;;;;4.00;1.97;;;10.80;99.90;;;;;;5095181;28;20542;-63
2022/01/03 06:00:52;;;;;;;5.60;2.00;;;10.70;99.90;;;;;;5094991;28;20493;-63
2022/01/03 06:03:22;;;;;;;4.03;2.27;;;10.70;99.90;;;;;;5095265;28;20439;-63
2022/01/03 06:06:06;;;;;;;4.03;2.60;;;10.50;99.90;;;;;;5094904;28;20459;-63
2022/01/03 06:08:33;;;;;;;10.00;3.90;;;10.50;99.90;;;;;;5094759;28;20971;-63
2022/01/03 06:11:00;;;;;;;3.47;2.23;;;10.60;99.90;;;;;;5095050;28;20517;-63
2022/01/03 06:13:28;;;;;;;2.87;2.00;;;10.50;99.90;;;;;;5094923;28;20488;-62
2022/01/03 06:15:55;;;;;;;4.37;3.13;;;10.50;99.90;;;;;;5094924;28;20420;-62
2022/01/03 06:18:23;;;;;;;5.20;2.40;;;10.60;99.90;;;;;;5094876;28;20448;-62
2022/01/03 06:20:52;;;;;;;4.10;2.50;;;10.70;99.90;;;;;;5094816;28;20483;-62
2022/01/03 06:23:20;;;;;;;4.63;2.63;;;10.50;99.90;;;;;;5094717;28;20493;-63
2022/01/03 06:25:48;;;;;;;8.17;2.30;;;10.70;99.90;;;;;;5094462;28;20444;-63
2022/01/03 06:28:15;;;;;;;11.23;4.07;;;10.70;99.90;;;;;;5094601;28;20444;-63
2022/01/03 06:30:44;;;;;;;8.00;2.23;;;10.90;99.90;;;;;;5094387;28;20958;-63
2022/01/03 06:33:11;;;;;;;5.97;2.40;;;10.70;99.90;;;;;;5094592;28;20469;-63
2022/01/03 06:35:39;;;;;;;7.10;2.93;;;10.80;99.90;;;;;;5093648;28;20956;-63
2022/01/03 06:38:07;;;;;;;3.47;2.10;;;10.80;99.90;;;;;;5094713;28;20435;-63
2022/01/03 06:40:35;;;;;;;6.10;2.53;;;10.70;99.90;;;;;;5094054;28;20993;-63
2022/01/03 06:43:02;;;;;;;3.03;1.83;;;10.70;99.90;;;;;;5094376;28;20542;-63
2022/01/03 06:45:29;;;;;;;3.33;2.00;;;10.70;99.90;;;;;;5094202;28;20455;-63
2022/01/03 06:47:57;;;;;;;6.40;2.80;;;10.70;99.90;;;;;;5094027;28;20443;-63
2022/01/03 06:50:24;;;;;;;10.10;2.93;;;10.70;99.90;;;;;;5093675;28;20465;-63
2022/01/03 06:52:51;;;;;;;5.50;2.70;;;10.50;99.90;;;;;;5094455;28;20799;-63
2022/01/03 06:55:20;;;;;;;8.13;3.53;;;10.40;99.90;;;;;;5094089;28;20934;-63
2022/01/03 06:57:47;;;;;;;12.60;5.30;;;10.30;99.90;;;;;;5093791;28;20952;-63
2022/01/03 07:00:16;;;;;;;7.70;4.80;;;10.30;99.90;;;;;;5094126;28;20483;-63
2022/01/03 07:02:43;;;;;;;11.20;5.60;;;10.30;99.90;;;;;;5094064;28;20443;-63
2022/01/03 07:05:12;;;;;;;9.70;5.00;;;10.40;99.90;;;;;;5094159;28;20458;-63
2022/01/03 07:07:40;;;;;;;7.30;4.77;;;10.40;99.90;;;;;;5093841;28;20558;-63
2022/01/03 07:10:09;;;;;;;7.77;3.50;;;10.40;99.90;;;;;;5093943;28;20446;-63
2022/01/03 07:12:38;;;;;;;10.33;3.77;;;10.60;99.90;;;;;;5093946;28;20573;-63
2022/01/03 07:20:36;;;;;;;5.63;3.10;;;10.40;99.90;;;;;;5093413;28;20528;-63
2022/01/03 07:23:03;;;;;;;9.50;4.33;;;10.40;99.90;;;;;;5093737;28;20530;-63
2022/01/03 07:25:30;;;;;;;11.20;4.73;;;10.40;99.90;;;;;;5093366;28;20530;-63
2022/01/03 07:27:59;;;;;;;8.00;4.40;;;10.50;99.90;;;;;;5093454;28;20542;-63
2022/01/03 07:30:26;;;;;;;5.80;3.13;;;10.50;99.90;;;;;;5093439;28;20463;-63
2022/01/03 07:32:53;;;;;;;6.13;3.03;;;10.60;99.90;;;;;;5093616;28;20446;-63
2022/01/03 07:35:21;;;;;;;4.37;2.77;;;10.40;99.90;;;;;;5093540;28;20547;-63
2022/01/03 07:37:48;;;;;;;7.83;2.33;;;10.30;99.90;;;;;;5093454;28;20450;-64
2022/01/03 07:40:15;;;;;;;4.53;2.80;;;10.20;99.90;;;;;;5093567;28;20570;-63
2022/01/03 07:42:43;;;;;;;2.73;2.30;;;10.00;99.90;;;;;;5093303;28;20812;-64
2022/01/03 07:45:13;;;;;;;6.27;2.70;;;10.00;99.90;;;;;;5093659;28;20454;-64
2022/01/03 07:47:41;;;;;;;4.67;2.40;;;10.00;99.90;;;;;;5092561;28;20474;-64
2022/01/03 07:50:10;;;;;;;6.17;2.60;;;10.30;99.90;;;;;;5093039;28;20802;-64
2022/01/03 07:52:37;;;;;;;4.00;2.50;;;10.30;99.90;;;;;;5093214;28;20443;-64
2022/01/03 07:55:06;;;;;;;7.03;2.30;;;10.40;99.90;;;;;;5093627;28;20447;-63
2022/01/03 07:57:33;;;;;;;3.93;2.40;;;10.40;99.90;;;;;;5093026;28;20455;-63
2022/01/03 08:00:00;;;;;;;6.93;2.70;;;10.40;99.90;;;;;;5093178;28;20506;-64
2022/01/03 08:02:29;;;;;;;5.83;2.30;;;10.40;99.90;;;;;;5093028;28;20530;-63
2022/01/03 08:04:56;;;;;;;4.60;2.20;;;10.40;99.90;;;;;;5092901;28;20444;-63
2022/01/03 08:07:23;;;;;;;5.77;2.40;;;10.40;99.90;;;;;;5092725;28;20549;-63
2022/01/03 08:09:51;;;;;;;4.47;2.43;;;10.40;99.90;;;;;;5093363;28;20443;-62
2022/01/03 08:12:18;;;;;;;7.60;2.10;;;10.50;99.90;;;;;;5093036;28;20482;-64
2022/01/03 08:14:45;;;;;;;6.00;2.17;;;10.60;99.90;;;;;;5092667;28;20565;-64
2022/01/03 08:17:12;;;;;;;4.57;2.57;;;10.70;99.90;;;;;;5092946;28;20535;-63
2022/01/03 08:19:41;;;;;;;4.57;2.37;;;10.70;99.90;;;;;;5093185;28;20475;-63
2022/01/03 08:22:08;;;;;;;8.17;3.40;;;10.70;99.90;;;;;;5092553;28;20463;-64
2022/01/03 08:24:35;;;;;;;5.57;3.10;;;10.70;99.90;;;;;;5092900;28;20974;-63
2022/01/03 08:27:03;;;;;;;5.17;3.50;;;10.80;99.90;;;;;;5092688;28;20534;-63
2022/01/03 08:29:30;;;;;;;9.90;3.07;;;10.70;99.90;;;;;;5093244;28;20865;-64
2022/01/03 08:31:57;;;;;;;7.47;3.10;;;10.80;99.90;;;;;;5092750;28;20481;-64
2022/01/03 08:34:25;;;;;;;6.67;2.97;;;10.80;99.90;;;;;;5092673;28;20438;-64
2022/01/03 08:36:53;;;;;;;3.23;2.30;;;10.90;99.90;;;;;;5093081;28;20786;-63
2022/01/03 08:39:21;;;;;;;12.60;3.13;;;10.90;99.90;;;;;;5092699;28;20451;-63
2022/01/03 08:41:48;;;;;;;9.57;2.30;;;10.90;99.90;;;;;;5092656;28;20475;-63
2022/01/03 08:44:16;;;;;;;10.70;2.30;;;10.90;99.90;;;;;;5092532;28;20550;-64
2022/01/03 08:46:43;;;;;;;3.30;2.20;;;11.00;99.90;;;;;;5093141;28;20533;-63
2022/01/03 08:49:10;;;;;;;3.10;2.20;;;11.00;99.90;;;;;;5092674;28;20538;-63
2022/01/03 08:51:37;;;;;;;5.00;2.77;;;10.90;99.90;;;;;;5092367;28;20489;-63
2022/01/03 08:54:06;;;;;;;5.30;2.33;;;11.10;99.90;;;;;;5092700;28;20450;-63
2022/01/03 08:56:33;;;;;;;6.30;3.70;;;11.10;99.90;;;;;;5092980;28;20849;-63
2022/01/03 08:59:02;;;;;;;5.73;3.13;;;11.10;99.90;;;;;;5093720;28;20534;-63
2022/01/03 09:01:29;;;;;;;4.50;2.63;;;11.10;99.90;;;;;;5096196;28;20494;-63
2022/01/03 09:03:56;;;;;;;6.63;2.30;;;11.20;99.90;;;;;;5096127;28;20443;-64
2022/01/03 09:06:24;;;;;;;9.07;2.43;;;11.30;99.90;;;;;;5096132;28;20953;-63
2022/01/03 09:08:51;;;;;;;3.27;2.60;;;11.30;99.90;;;;;;5096222;28;20470;-63
2022/01/03 09:11:20;;;;;;;8.77;2.83;;;11.30;99.90;;;;;;5095906;28;20470;-63
2022/01/03 09:13:47;;;;;;;4.50;2.83;;;11.30;99.90;;;;;;5094702;28;20562;-63
2022/01/03 09:16:14;;;;;;;5.10;2.87;;;11.40;99.90;;;;;;5095859;28;20945;-63
2022/01/03 09:18:42;;;;;;;9.13;2.50;;;11.40;99.90;;;;;;5096182;28;20952;-63
2022/01/03 09:21:10;;;;;;;4.90;2.30;;;11.50;99.90;;;;;;5095455;28;20922;-63
2022/01/03 09:23:41;;;;;;;4.43;2.30;;;11.60;99.90;;;;;;5095889;28;20479;-63
2022/01/03 09:28:56;;;;;;;9.40;3.40;;;11.60;99.90;;;;;;5095724;28;20411;-63
2022/01/03 09:31:26;;;;;;;5.57;2.27;;;11.50;99.90;;;;;;5095640;28;20464;-63
2022/01/03 09:33:54;;;;;;;10.50;3.20;;;11.60;99.90;;;;;;5096022;28;20447;-63
2022/01/03 09:36:22;;;;;;;3.53;2.70;;;11.60;99.90;;;;;;5095270;28;20542;-63
2022/01/03 09:38:50;;;;;;;4.10;2.37;;;11.40;99.90;;;;;;5095349;28;20538;-63
2022/01/03 09:41:20;;;;;;;7.70;3.50;;;11.40;99.90;;;;;;5095078;28;20491;-63
2022/01/03 09:43:49;;;;;;;6.00;3.37;;;11.50;99.90;;;;;;5095602;28;20432;-63
2022/01/03 09:46:23;;;;;;;4.40;2.90;;;11.60;99.90;;;;;;5095599;28;20479;-63
2022/01/03 09:48:52;;;;;;;4.33;2.93;;;11.60;99.90;;;;;;5095690;28;20424;-63
2022/01/03 09:51:22;;;;;;;5.40;3.20;;;11.60;99.90;;;;;;5095251;28;20462;-63
2022/01/03 09:53:51;;;;;;;6.47;2.77;;;11.60;99.90;;;;;;5095208;28;20450;-63
2022/01/03 09:56:18;;;;;;;4.90;2.87;;;11.60;99.90;;;;;;5095432;28;20535;-63
2022/01/03 09:58:45;;;;;;;5.50;2.90;;;11.70;99.90;;;;;;5094894;28;20450;-63
2022/01/03 10:01:13;;;;;;;8.77;3.93;;;11.80;99.90;;;;;;5094729;28;20829;-63
2022/01/03 10:03:47;;;;;;;12.73;3.00;;;11.80;99.90;;;;;;5095322;28;20540;-64
2022/01/03 10:06:16;;;;;;;7.43;3.27;;;11.70;99.90;;;;;;5095194;28;20921;-63
2022/01/03 10:08:43;;;;;;;4.13;2.40;;;11.90;99.90;;;;;;5095106;28;20451;-63
2022/01/03 10:11:10;;;;;;;4.77;2.27;;;11.90;99.90;;;;;;5094280;28;20807;-63
2022/01/03 10:13:38;;;;;;;6.43;2.50;;;11.90;99.90;;;;;;5094860;28;20550;-64
2022/01/03 10:16:06;;;;;;;5.73;2.60;;;12.00;99.90;;;;;;5094648;28;20443;-63
2022/01/03 10:18:34;;;;;;;8.23;2.13;;;12.00;99.90;;;;;;5094920;28;20913;-63
2022/01/03 10:21:04;;;;;;;9.10;2.13;;;12.10;99.90;;;;;;5094410;28;20483;-63
2022/01/03 10:23:31;;;;;;;6.80;2.00;;;12.00;99.90;;;;;;5094462;28;20450;-63
2022/01/03 10:26:14;;;;;;;6.93;2.33;;;12.20;99.90;;;;;;5094448;28;20629;-63
2022/01/03 10:28:41;;;;;;;3.43;1.67;;;12.00;99.90;;;;;;5094301;28;20907;-63
2022/01/03 10:31:16;;;;;;;3.73;2.37;;;12.00;99.90;;;;;;5094381;28;20970;-63
2022/01/03 10:33:43;;;;;;;6.53;2.93;;;12.00;99.90;;;;;;5094360;28;20782;-63
2022/01/03 10:36:29;;;;;;;4.13;1.97;;;12.00;99.90;;;;;;5094102;28;20447;-63
2022/01/03 10:38:58;;;;;;;7.37;2.30;;;12.10;99.90;;;;;;5094203;28;20742;-63
2022/01/03 10:41:26;;;;;;;8.57;3.23;;;12.20;99.90;;;;;;5094309;28;20544;-63
2022/01/03 10:43:56;;;;;;;4.00;2.47;;;12.30;99.90;;;;;;5094481;28;20448;-63
2022/01/03 10:46:25;;;;;;;9.80;2.60;;;12.30;99.90;;;;;;5094330;28;20454;-63
2022/01/03 10:48:55;;;;;;;5.20;2.03;;;12.40;99.90;;;;;;5094259;28;20538;-63
2022/01/03 10:51:26;;;;;;;7.07;2.50;;;12.40;99.90;;;;;;5093961;28;20463;-62
2022/01/03 10:53:54;;;;;;;6.57;2.30;;;12.40;99.90;;;;;;5094418;28;20428;-63
2022/01/03 10:56:32;;;;;;;4.10;2.53;;;12.30;99.90;;;;;;5093869;28;20440;-63
2022/01/03 10:59:02;;;;;;;3.63;1.77;;;12.40;99.90;;;;;;5093866;28;20431;-63
2022/01/03 11:01:31;;;;;;;7.20;2.40;;;12.30;99.90;;;;;;5093655;28;20846;-63
2022/01/03 11:04:01;;;;;;;4.43;2.27;;;12.30;99.90;;;;;;5094154;28;20477;-63
2022/01/03 11:12:19;;;;;;;3.73;2.60;;;12.50;99.90;;;;;;5093705;28;21008;-63
2022/01/03 11:14:46;;;;;;;5.90;2.00;;;12.50;99.90;;;;;;5093146;28;21004;-63
2022/01/03 11:17:24;;;;;;;3.13;1.97;;;12.50;99.90;;;;;;5093785;28;20863;-63
2022/01/03 11:19:51;;;;;;;6.93;2.20;;;12.50;99.90;;;;;;5093380;28;20435;-63
2022/01/03 11:22:42;;;;;;;6.70;2.60;;;12.60;99.90;;;;;;5093534;28;20487;-63
2022/01/03 11:25:10;;;;;;;4.30;2.07;;;12.60;99.90;;;;;;5093711;28;20430;-63
2022/01/03 11:27:40;;;;;;;6.20;1.90;;;12.60;99.90;;;;;;5093238;28;20478;-63
2022/01/03 11:30:09;;;;;;;6.80;2.30;;;12.60;99.90;;;;;;5093291;28;20443;-63
2022/01/03 11:32:39;;;;;;;7.63;2.13;;;12.50;99.90;;;;;;5093666;28;20515;-63
2022/01/03 11:35:07;;;;;;;3.27;2.00;;;12.70;99.90;;;;;;5093657;28;20443;-63
2022/01/03 11:37:36;;;;;;;3.20;2.10;;;12.60;99.90;;;;;;5093630;28;20516;-63
2022/01/03 11:40:06;;;;;;;2.67;2.30;;;12.60;99.90;;;;;;5093181;28;20439;-64
2022/01/03 11:42:34;;;;;;;10.30;2.57;;;12.80;99.90;;;;;;5093117;28;20483;-63
2022/01/03 11:45:02;;;;;;;3.93;1.70;;;12.80;99.90;;;;;;5093016;28;20801;-63
2022/01/03 11:47:31;;;;;;;3.40;1.80;;;12.90;99.90;;;;;;5092960;28;20507;-63
2022/01/03 11:49:59;;;;;;;5.10;2.10;;;13.00;99.90;;;;;;5093300;28;20500;-63
2022/01/03 11:52:27;;;;;;;4.60;2.53;;;12.90;99.90;;;;;;5092858;28;20453;-63
2022/01/03 11:54:55;;;;;;;4.57;2.00;;;12.90;99.90;;;;;;5093319;28;20475;-63
2022/01/03 11:57:38;;;;;;;5.67;1.73;;;13.00;99.90;;;;;;5093008;28;20447;-63
2022/01/03 12:05:45;;;;;;;2.87;1.83;;;12.90;99.90;;;;;;5093049;28;20962;-63
2022/01/03 12:08:21;;;;;;;2.80;2.03;;;12.80;99.90;;;;;;5093484;28;20419;-63
2022/01/03 12:10:49;;;;;;;2.73;1.93;;;12.90;99.90;;;;;;5092949;28;20455;-63
2022/01/03 12:13:19;;;;;;;4.23;2.03;;;12.90;99.90;;;;;;5092654;28;20424;-63
2022/01/03 12:15:46;;;;;;;4.30;3.40;;;12.90;99.90;;;;;;5093236;28;20419;-63
2022/01/03 12:18:30;;;;;;;5.33;1.87;;;12.90;99.90;;;;;;5093041;28;20960;-62
2022/01/03 12:20:57;;;;;;;4.33;1.80;;;13.00;99.90;;;;;;5092993;28;20487;-62
2022/01/03 12:23:38;;;;;;;2.50;1.77;;;12.90;99.90;;;;;;5092954;28;20579;-62
2022/01/03 12:26:10;;;;;;;4.60;1.97;;;12.80;99.90;;;;;;5093003;28;20454;-63
2022/01/03 12:29:07;;;;;;;2.10;1.80;;;12.70;99.90;;;;;;5092957;28;20443;-63
2022/01/03 12:32:20;;;;;;;4.43;1.90;;;12.80;99.90;;;;;;5092588;28;20467;-63
2022/01/03 12:35:24;;;;;;;2.17;1.63;;;12.80;99.90;;;;;;5058896;28;20495;-63
2022/01/03 12:38:14;;;;;;;2.43;1.67;;;12.80;99.90;;;;;;5096676;28;20423;-63
2022/01/03 12:40:54;;;;;;;2.57;1.70;;;12.80;99.90;;;;;;5096442;28;20471;-63
2022/01/03 12:43:49;;;;;;;3.60;1.70;;;12.70;99.90;;;;;;5096598;28;20431;-64
2022/01/03 12:46:21;;;;;;;5.33;3.03;;;12.60;99.90;;;;;;5096718;28;20538;-63
2022/01/03 12:48:50;;;;;;;3.10;1.87;;;12.70;99.90;;;;;;5096328;28;20809;-63
2022/01/03 12:51:18;;;;;;;3.60;2.20;;;12.70;99.90;;;;;;5096267;28;20558;-63
2022/01/03 12:53:49;;;;;;;3.03;1.90;;;12.80;99.90;;;;;;5096375;28;20475;-63
2022/01/03 12:56:17;;;;;;;3.10;1.63;;;12.70;99.90;;;;;;5096455;28;20423;-63
2022/01/03 12:58:46;;;;;;;8.40;2.50;;;12.70;99.90;;;;;;5096568;28;20447;-63
2022/01/03 13:01:30;;;;;;;3.23;2.03;;;12.80;99.90;;;;;;5096101;28;20489;-64
2022/01/03 13:04:20;;;;;;;6.93;2.00;;;12.80;99.90;;;;;;5096378;28;20815;-63
2022/01/03 13:06:48;;;;;;;3.67;2.27;;;12.70;99.90;;;;;;5096384;28;20451;-63
2022/01/03 13:09:17;;;;;;;5.70;2.33;;;12.70;99.90;;;;;;5095964;28;20440;-63
2022/01/03 13:11:45;;;;;;;5.77;2.17;;;12.70;99.90;;;;;;5095792;28;20962;-64
2022/01/03 13:14:18;;;;;;;2.53;1.80;;;12.80;99.90;;;;;;5095651;28;20479;-64
2022/01/03 13:16:49;;;;;;;3.23;1.93;;;12.70;99.90;;;;;;5095864;28;20891;-63
2022/01/03 13:19:17;;;;;;;7.63;2.70;;;12.80;99.90;;;;;;5095896;28;20455;-63